sensor_id;sensor_type;location;lat;lon;timestamp;P1;durP1;ratioP1;P2;durP2;ratioP2
51987;SDS011;38003;52.012;4.346;2022-12-18T00:01:56;60.80;;;28.17;;
51987;SDS011;38003;52.012;4.346;2022-12-18T00:04:26;60.23;;;28.03;;
51987;SDS011;38003;52.012;4.346;2022-12-18T00:06:54;64.43;;;28.30;;
51987;SDS011;38003;52.012;4.346;2022-12-18T00:09:22;62.93;;;28.23;;
51987;SDS011;38003;52.012;4.346;2022-12-18T00:12:06;54.50;;;27.47;;
51987;SDS011;38003;52.012;4.346;2022-12-18T00:14:40;63.50;;;29.30;;
51987;SDS011;38003;52.012;4.346;2022-12-18T00:17:09;60.03;;;27.97;;
51987;SDS011;38003;52.012;4.346;2022-12-18T00:19:37;60.57;;;28.67;;
51987;SDS011;38003;52.012;4.346;2022-12-18T00:22:05;62.03;;;28.33;;
51987;SDS011;38003;52.012;4.346;2022-12-18T00:24:33;70.43;;;29.57;;
51987;SDS011;38003;52.012;4.346;2022-12-18T00:27:01;61.93;;;28.50;;
51987;SDS011;38003;52.012;4.346;2022-12-18T00:29:31;68.43;;;30.27;;
51987;SDS011;38003;52.012;4.346;2022-12-18T00:31:59;61.40;;;27.27;;
51987;SDS011;38003;52.012;4.346;2022-12-18T00:34:27;58.00;;;27.53;;
51987;SDS011;38003;52.012;4.346;2022-12-18T00:36:55;65.30;;;28.83;;
51987;SDS011;38003;52.012;4.346;2022-12-18T00:39:23;59.87;;;28.80;;
51987;SDS011;38003;52.012;4.346;2022-12-18T00:41:52;61.40;;;29.63;;
51987;SDS011;38003;52.012;4.346;2022-12-18T00:44:39;59.63;;;29.27;;
51987;SDS011;38003;52.012;4.346;2022-12-18T00:47:07;62.30;;;30.93;;
51987;SDS011;38003;52.012;4.346;2022-12-18T00:49:36;61.93;;;29.50;;
51987;SDS011;38003;52.012;4.346;2022-12-18T00:52:04;59.33;;;28.40;;
51987;SDS011;38003;52.012;4.346;2022-12-18T00:54:32;61.07;;;28.87;;
51987;SDS011;38003;52.012;4.346;2022-12-18T00:57:00;56.80;;;28.13;;
51987;SDS011;38003;52.012;4.346;2022-12-18T00:59:28;57.53;;;27.20;;
51987;SDS011;38003;52.012;4.346;2022-12-18T01:01:58;63.80;;;27.77;;
51987;SDS011;38003;52.012;4.346;2022-12-18T01:04:26;53.17;;;26.37;;
51987;SDS011;38003;52.012;4.346;2022-12-18T01:06:55;54.73;;;27.63;;
51987;SDS011;38003;52.012;4.346;2022-12-18T01:09:23;51.30;;;26.60;;
51987;SDS011;38003;52.012;4.346;2022-12-18T01:11:52;51.33;;;26.13;;
51987;SDS011;38003;52.012;4.346;2022-12-18T01:14:20;53.00;;;25.90;;
51987;SDS011;38003;52.012;4.346;2022-12-18T01:16:48;55.87;;;26.27;;
51987;SDS011;38003;52.012;4.346;2022-12-18T01:19:18;51.73;;;26.87;;
51987;SDS011;38003;52.012;4.346;2022-12-18T01:21:46;55.07;;;26.63;;
51987;SDS011;38003;52.012;4.346;2022-12-18T01:24:14;50.97;;;25.43;;
51987;SDS011;38003;52.012;4.346;2022-12-18T01:26:42;50.50;;;24.50;;
51987;SDS011;38003;52.012;4.346;2022-12-18T01:29:10;53.37;;;25.83;;
51987;SDS011;38003;52.012;4.346;2022-12-18T01:31:38;54.13;;;25.27;;
51987;SDS011;38003;52.012;4.346;2022-12-18T01:34:07;52.07;;;24.87;;
51987;SDS011;38003;52.012;4.346;2022-12-18T01:36:37;57.63;;;26.30;;
51987;SDS011;38003;52.012;4.346;2022-12-18T01:39:06;51.60;;;25.63;;
51987;SDS011;38003;52.012;4.346;2022-12-18T01:41:35;58.77;;;27.77;;
51987;SDS011;38003;52.012;4.346;2022-12-18T01:47:04;52.83;;;26.47;;
51987;SDS011;38003;52.012;4.346;2022-12-18T01:49:33;54.90;;;26.80;;
51987;SDS011;38003;52.012;4.346;2022-12-18T01:52:02;55.17;;;25.73;;
51987;SDS011;38003;52.012;4.346;2022-12-18T01:54:30;54.80;;;26.63;;
51987;SDS011;38003;52.012;4.346;2022-12-18T01:56:58;60.23;;;26.33;;
51987;SDS011;38003;52.012;4.346;2022-12-18T01:59:27;53.93;;;26.03;;
51987;SDS011;38003;52.012;4.346;2022-12-18T02:01:55;59.70;;;27.70;;
51987;SDS011;38003;52.012;4.346;2022-12-18T02:04:25;67.77;;;28.13;;
51987;SDS011;38003;52.012;4.346;2022-12-18T02:06:54;61.70;;;27.40;;
51987;SDS011;38003;52.012;4.346;2022-12-18T02:09:26;63.97;;;27.10;;
51987;SDS011;38003;52.012;4.346;2022-12-18T02:11:59;56.63;;;26.07;;
51987;SDS011;38003;52.012;4.346;2022-12-18T02:14:28;60.43;;;27.40;;
51987;SDS011;38003;52.012;4.346;2022-12-18T02:17:01;54.20;;;25.40;;
51987;SDS011;38003;52.012;4.346;2022-12-18T02:19:37;51.93;;;25.27;;
51987;SDS011;38003;52.012;4.346;2022-12-18T02:22:11;52.40;;;24.20;;
51987;SDS011;38003;52.012;4.346;2022-12-18T02:24:46;56.10;;;25.47;;
51987;SDS011;38003;52.012;4.346;2022-12-18T02:27:17;48.67;;;24.33;;
51987;SDS011;38003;52.012;4.346;2022-12-18T02:29:46;55.50;;;24.73;;
51987;SDS011;38003;52.012;4.346;2022-12-18T02:32:25;52.47;;;24.97;;
51987;SDS011;38003;52.012;4.346;2022-12-18T02:34:55;55.37;;;25.90;;
51987;SDS011;38003;52.012;4.346;2022-12-18T02:37:24;53.30;;;25.00;;
51987;SDS011;38003;52.012;4.346;2022-12-18T02:39:54;49.57;;;24.00;;
51987;SDS011;38003;52.012;4.346;2022-12-18T02:42:25;53.70;;;24.40;;
51987;SDS011;38003;52.012;4.346;2022-12-18T02:44:53;54.43;;;25.23;;
51987;SDS011;38003;52.012;4.346;2022-12-18T02:47:22;49.80;;;23.90;;
51987;SDS011;38003;52.012;4.346;2022-12-18T02:49:53;53.73;;;25.50;;
51987;SDS011;38003;52.012;4.346;2022-12-18T02:52:24;49.93;;;23.70;;
51987;SDS011;38003;52.012;4.346;2022-12-18T02:54:57;50.27;;;24.33;;
51987;SDS011;38003;52.012;4.346;2022-12-18T02:57:33;52.40;;;25.00;;
51987;SDS011;38003;52.012;4.346;2022-12-18T03:00:03;51.83;;;25.77;;
51987;SDS011;38003;52.012;4.346;2022-12-18T03:02:34;50.23;;;23.90;;
51987;SDS011;38003;52.012;4.346;2022-12-18T03:05:07;55.17;;;24.97;;
51987;SDS011;38003;52.012;4.346;2022-12-18T03:07:39;48.40;;;23.73;;
51987;SDS011;38003;52.012;4.346;2022-12-18T03:10:10;50.67;;;24.90;;
51987;SDS011;38003;52.012;4.346;2022-12-18T03:12:41;55.00;;;25.63;;
51987;SDS011;38003;52.012;4.346;2022-12-18T03:15:13;50.80;;;25.60;;
51987;SDS011;38003;52.012;4.346;2022-12-18T03:17:44;52.93;;;24.40;;
51987;SDS011;38003;52.012;4.346;2022-12-18T03:20:15;52.57;;;25.63;;
51987;SDS011;38003;52.012;4.346;2022-12-18T03:22:45;50.43;;;24.37;;
51987;SDS011;38003;52.012;4.346;2022-12-18T03:25:15;51.60;;;25.23;;
51987;SDS011;38003;52.012;4.346;2022-12-18T03:27:46;53.43;;;25.43;;
51987;SDS011;38003;52.012;4.346;2022-12-18T03:30:15;51.63;;;24.67;;
51987;SDS011;38003;52.012;4.346;2022-12-18T03:32:44;52.33;;;25.33;;
51987;SDS011;38003;52.012;4.346;2022-12-18T03:35:16;52.80;;;24.53;;
51987;SDS011;38003;52.012;4.346;2022-12-18T03:37:46;48.07;;;23.47;;
51987;SDS011;38003;52.012;4.346;2022-12-18T03:40:14;49.07;;;24.63;;
51987;SDS011;38003;52.012;4.346;2022-12-18T03:42:44;53.90;;;23.83;;
51987;SDS011;38003;52.012;4.346;2022-12-18T03:45:17;48.60;;;23.27;;
51987;SDS011;38003;52.012;4.346;2022-12-18T03:47:48;45.30;;;23.10;;
51987;SDS011;38003;52.012;4.346;2022-12-18T03:50:20;48.63;;;24.27;;
51987;SDS011;38003;52.012;4.346;2022-12-18T03:52:50;46.00;;;23.50;;
51987;SDS011;38003;52.012;4.346;2022-12-18T03:55:19;45.63;;;22.67;;
51987;SDS011;38003;52.012;4.346;2022-12-18T03:57:49;45.93;;;23.80;;
51987;SDS011;38003;52.012;4.346;2022-12-18T04:00:20;43.57;;;23.03;;
51987;SDS011;38003;52.012;4.346;2022-12-18T04:02:50;43.47;;;22.17;;
51987;SDS011;38003;52.012;4.346;2022-12-18T04:05:18;47.50;;;22.30;;
51987;SDS011;38003;52.012;4.346;2022-12-18T04:07:47;44.40;;;23.10;;
51987;SDS011;38003;52.012;4.346;2022-12-18T04:10:18;44.37;;;22.33;;
51987;SDS011;38003;52.012;4.346;2022-12-18T04:12:46;43.83;;;22.30;;
51987;SDS011;38003;52.012;4.346;2022-12-18T04:15:14;46.57;;;22.57;;
51987;SDS011;38003;52.012;4.346;2022-12-18T04:17:46;47.30;;;22.67;;
51987;SDS011;38003;52.012;4.346;2022-12-18T04:20:15;42.33;;;21.33;;
51987;SDS011;38003;52.012;4.346;2022-12-18T04:22:43;40.40;;;21.00;;
51987;SDS011;38003;52.012;4.346;2022-12-18T04:25:12;40.77;;;21.30;;
51987;SDS011;38003;52.012;4.346;2022-12-18T04:27:40;41.53;;;21.40;;
51987;SDS011;38003;52.012;4.346;2022-12-18T04:30:08;44.03;;;21.63;;
51987;SDS011;38003;52.012;4.346;2022-12-18T04:32:36;41.70;;;21.73;;
51987;SDS011;38003;52.012;4.346;2022-12-18T04:35:06;40.73;;;21.53;;
51987;SDS011;38003;52.012;4.346;2022-12-18T04:37:36;47.43;;;22.77;;
51987;SDS011;38003;52.012;4.346;2022-12-18T04:40:05;41.43;;;20.50;;
51987;SDS011;38003;52.012;4.346;2022-12-18T04:42:33;41.20;;;21.73;;
51987;SDS011;38003;52.012;4.346;2022-12-18T04:45:02;38.27;;;20.70;;
51987;SDS011;38003;52.012;4.346;2022-12-18T04:47:30;40.47;;;20.83;;
51987;SDS011;38003;52.012;4.346;2022-12-18T04:49:58;40.40;;;20.30;;
51987;SDS011;38003;52.012;4.346;2022-12-18T04:52:28;43.63;;;21.80;;
51987;SDS011;38003;52.012;4.346;2022-12-18T04:54:56;38.80;;;21.27;;
51987;SDS011;38003;52.012;4.346;2022-12-18T04:57:24;41.60;;;21.00;;
51987;SDS011;38003;52.012;4.346;2022-12-18T04:59:52;41.77;;;21.13;;
51987;SDS011;38003;52.012;4.346;2022-12-18T05:02:21;42.80;;;21.50;;
51987;SDS011;38003;52.012;4.346;2022-12-18T05:04:49;38.93;;;20.47;;
51987;SDS011;38003;52.012;4.346;2022-12-18T05:07:17;40.40;;;21.13;;
51987;SDS011;38003;52.012;4.346;2022-12-18T05:09:47;40.87;;;20.47;;
51987;SDS011;38003;52.012;4.346;2022-12-18T05:12:15;41.90;;;21.40;;
51987;SDS011;38003;52.012;4.346;2022-12-18T05:14:43;40.83;;;21.07;;
51987;SDS011;38003;52.012;4.346;2022-12-18T05:17:11;40.10;;;20.63;;
51987;SDS011;38003;52.012;4.346;2022-12-18T05:19:39;40.50;;;21.23;;
51987;SDS011;38003;52.012;4.346;2022-12-18T05:22:08;41.33;;;22.03;;
51987;SDS011;38003;52.012;4.346;2022-12-18T05:24:36;40.77;;;20.77;;
51987;SDS011;38003;52.012;4.346;2022-12-18T05:27:05;39.87;;;20.57;;
51987;SDS011;38003;52.012;4.346;2022-12-18T05:29:34;42.43;;;21.83;;
51987;SDS011;38003;52.012;4.346;2022-12-18T05:32:02;44.23;;;21.57;;
51987;SDS011;38003;52.012;4.346;2022-12-18T05:34:30;38.03;;;18.97;;
51987;SDS011;38003;52.012;4.346;2022-12-18T05:36:59;42.87;;;21.60;;
51987;SDS011;38003;52.012;4.346;2022-12-18T05:39:27;43.80;;;21.03;;
51987;SDS011;38003;52.012;4.346;2022-12-18T05:41:56;42.07;;;20.57;;
51987;SDS011;38003;52.012;4.346;2022-12-18T05:44:25;39.33;;;20.77;;
51987;SDS011;38003;52.012;4.346;2022-12-18T05:46:53;41.20;;;20.63;;
51987;SDS011;38003;52.012;4.346;2022-12-18T05:49:22;40.10;;;21.27;;
51987;SDS011;38003;52.012;4.346;2022-12-18T05:51:50;43.00;;;21.03;;
51987;SDS011;38003;52.012;4.346;2022-12-18T05:54:18;39.07;;;21.17;;
51987;SDS011;38003;52.012;4.346;2022-12-18T05:56:46;38.90;;;20.67;;
51987;SDS011;38003;52.012;4.346;2022-12-18T05:59:14;41.30;;;21.07;;
51987;SDS011;38003;52.012;4.346;2022-12-18T06:01:44;38.87;;;20.07;;
51987;SDS011;38003;52.012;4.346;2022-12-18T06:04:12;36.00;;;19.87;;
51987;SDS011;38003;52.012;4.346;2022-12-18T06:06:40;34.57;;;19.77;;
51987;SDS011;38003;52.012;4.346;2022-12-18T06:09:09;36.10;;;20.17;;
51987;SDS011;38003;52.012;4.346;2022-12-18T06:11:38;36.43;;;19.63;;
51987;SDS011;38003;52.012;4.346;2022-12-18T06:14:06;39.10;;;20.47;;
51987;SDS011;38003;52.012;4.346;2022-12-18T06:16:35;37.53;;;20.80;;
51987;SDS011;38003;52.012;4.346;2022-12-18T06:19:05;36.47;;;20.50;;
51987;SDS011;38003;52.012;4.346;2022-12-18T06:21:33;35.03;;;19.77;;
51987;SDS011;38003;52.012;4.346;2022-12-18T06:24:01;38.33;;;19.63;;
51987;SDS011;38003;52.012;4.346;2022-12-18T06:26:29;35.80;;;19.23;;
51987;SDS011;38003;52.012;4.346;2022-12-18T06:28:57;33.93;;;19.33;;
51987;SDS011;38003;52.012;4.346;2022-12-18T06:31:26;33.63;;;19.40;;
51987;SDS011;38003;52.012;4.346;2022-12-18T06:33:54;35.97;;;18.47;;
51987;SDS011;38003;52.012;4.346;2022-12-18T06:36:24;33.23;;;18.77;;
51987;SDS011;38003;52.012;4.346;2022-12-18T06:38:52;31.63;;;18.83;;
51987;SDS011;38003;52.012;4.346;2022-12-18T06:41:20;35.07;;;18.67;;
51987;SDS011;38003;52.012;4.346;2022-12-18T06:43:49;33.13;;;18.93;;
51987;SDS011;38003;52.012;4.346;2022-12-18T06:46:23;35.07;;;18.73;;
51987;SDS011;38003;52.012;4.346;2022-12-18T06:48:51;34.53;;;19.17;;
51987;SDS011;38003;52.012;4.346;2022-12-18T06:51:19;32.30;;;16.53;;
51987;SDS011;38003;52.012;4.346;2022-12-18T06:53:49;34.07;;;19.33;;
51987;SDS011;38003;52.012;4.346;2022-12-18T06:56:17;32.87;;;18.73;;
51987;SDS011;38003;52.012;4.346;2022-12-18T06:58:46;29.33;;;17.37;;
51987;SDS011;38003;52.012;4.346;2022-12-18T07:01:14;35.07;;;18.60;;
51987;SDS011;38003;52.012;4.346;2022-12-18T07:03:42;31.73;;;18.13;;
51987;SDS011;38003;52.012;4.346;2022-12-18T07:06:15;32.03;;;17.40;;
51987;SDS011;38003;52.012;4.346;2022-12-18T07:08:43;31.93;;;18.43;;
51987;SDS011;38003;52.012;4.346;2022-12-18T07:11:13;33.53;;;18.07;;
51987;SDS011;38003;52.012;4.346;2022-12-18T07:13:41;30.83;;;17.73;;
51987;SDS011;38003;52.012;4.346;2022-12-18T07:16:10;31.60;;;17.27;;
51987;SDS011;38003;52.012;4.346;2022-12-18T07:18:49;33.50;;;17.93;;
51987;SDS011;38003;52.012;4.346;2022-12-18T07:21:17;29.03;;;17.23;;
51987;SDS011;38003;52.012;4.346;2022-12-18T07:23:46;31.23;;;18.17;;
51987;SDS011;38003;52.012;4.346;2022-12-18T07:26:16;29.53;;;17.00;;
51987;SDS011;38003;52.012;4.346;2022-12-18T07:28:45;32.20;;;17.80;;
51987;SDS011;38003;52.012;4.346;2022-12-18T07:31:14;27.73;;;17.07;;
51987;SDS011;38003;52.012;4.346;2022-12-18T07:33:42;32.43;;;17.97;;
51987;SDS011;38003;52.012;4.346;2022-12-18T07:36:11;28.37;;;17.40;;
51987;SDS011;38003;52.012;4.346;2022-12-18T07:38:39;27.63;;;16.87;;
51987;SDS011;38003;52.012;4.346;2022-12-18T07:41:08;29.17;;;17.20;;
51987;SDS011;38003;52.012;4.346;2022-12-18T07:43:38;30.17;;;17.67;;
51987;SDS011;38003;52.012;4.346;2022-12-18T07:46:08;30.00;;;16.73;;
51987;SDS011;38003;52.012;4.346;2022-12-18T07:48:38;29.67;;;16.00;;
51987;SDS011;38003;52.012;4.346;2022-12-18T07:51:07;27.30;;;16.03;;
51987;SDS011;38003;52.012;4.346;2022-12-18T07:53:38;24.87;;;15.17;;
51987;SDS011;38003;52.012;4.346;2022-12-18T07:56:08;26.33;;;16.27;;
51987;SDS011;38003;52.012;4.346;2022-12-18T07:58:56;29.10;;;15.10;;
51987;SDS011;38003;52.012;4.346;2022-12-18T08:01:24;27.97;;;15.40;;
51987;SDS011;38003;52.012;4.346;2022-12-18T08:03:53;27.33;;;15.23;;
51987;SDS011;38003;52.012;4.346;2022-12-18T08:06:21;26.30;;;15.00;;
51987;SDS011;38003;52.012;4.346;2022-12-18T08:08:50;25.70;;;15.53;;
51987;SDS011;38003;52.012;4.346;2022-12-18T08:11:18;25.73;;;14.67;;
51987;SDS011;38003;52.012;4.346;2022-12-18T08:13:47;23.53;;;13.80;;
51987;SDS011;38003;52.012;4.346;2022-12-18T08:16:17;22.80;;;15.07;;
51987;SDS011;38003;52.012;4.346;2022-12-18T08:18:45;25.07;;;14.43;;
51987;SDS011;38003;52.012;4.346;2022-12-18T08:21:15;23.13;;;15.53;;
51987;SDS011;38003;52.012;4.346;2022-12-18T08:23:45;25.80;;;15.00;;
51987;SDS011;38003;52.012;4.346;2022-12-18T08:26:15;23.73;;;14.50;;
51987;SDS011;38003;52.012;4.346;2022-12-18T08:28:44;25.50;;;15.17;;
51987;SDS011;38003;52.012;4.346;2022-12-18T08:31:13;23.60;;;14.17;;
51987;SDS011;38003;52.012;4.346;2022-12-18T08:33:42;22.90;;;14.27;;
51987;SDS011;38003;52.012;4.346;2022-12-18T08:36:12;24.47;;;14.73;;
51987;SDS011;38003;52.012;4.346;2022-12-18T08:38:40;22.13;;;13.57;;
51987;SDS011;38003;52.012;4.346;2022-12-18T08:41:08;22.93;;;14.83;;
51987;SDS011;38003;52.012;4.346;2022-12-18T08:43:37;23.63;;;14.60;;
51987;SDS011;38003;52.012;4.346;2022-12-18T08:46:23;28.23;;;15.67;;
51987;SDS011;38003;52.012;4.346;2022-12-18T08:48:54;23.37;;;14.67;;
51987;SDS011;38003;52.012;4.346;2022-12-18T08:51:22;27.33;;;15.00;;
51987;SDS011;38003;52.012;4.346;2022-12-18T08:53:51;25.37;;;15.13;;
51987;SDS011;38003;52.012;4.346;2022-12-18T08:56:19;23.23;;;15.07;;
51987;SDS011;38003;52.012;4.346;2022-12-18T08:58:47;26.47;;;16.53;;
51987;SDS011;38003;52.012;4.346;2022-12-18T09:01:15;22.20;;;14.03;;
51987;SDS011;38003;52.012;4.346;2022-12-18T09:03:43;21.30;;;14.63;;
51987;SDS011;38003;52.012;4.346;2022-12-18T09:06:14;24.53;;;14.10;;
51987;SDS011;38003;52.012;4.346;2022-12-18T09:11:20;22.23;;;15.20;;
51987;SDS011;38003;52.012;4.346;2022-12-18T09:13:49;24.60;;;16.13;;
51987;SDS011;38003;52.012;4.346;2022-12-18T09:16:17;23.80;;;14.73;;
51987;SDS011;38003;52.012;4.346;2022-12-18T09:18:45;23.73;;;15.87;;
51987;SDS011;38003;52.012;4.346;2022-12-18T09:21:15;24.30;;;16.43;;
51987;SDS011;38003;52.012;4.346;2022-12-18T09:23:45;23.60;;;15.33;;
51987;SDS011;38003;52.012;4.346;2022-12-18T09:26:16;21.50;;;14.23;;
51987;SDS011;38003;52.012;4.346;2022-12-18T09:28:44;25.67;;;14.43;;
51987;SDS011;38003;52.012;4.346;2022-12-18T09:31:13;23.60;;;15.03;;
51987;SDS011;38003;52.012;4.346;2022-12-18T09:33:41;22.50;;;14.20;;
51987;SDS011;38003;52.012;4.346;2022-12-18T09:36:13;24.60;;;14.73;;
51987;SDS011;38003;52.012;4.346;2022-12-18T09:38:43;24.00;;;15.13;;
51987;SDS011;38003;52.012;4.346;2022-12-18T09:41:17;26.20;;;16.37;;
51987;SDS011;38003;52.012;4.346;2022-12-18T09:43:48;20.83;;;13.70;;
51987;SDS011;38003;52.012;4.346;2022-12-18T09:46:19;22.00;;;14.70;;
51987;SDS011;38003;52.012;4.346;2022-12-18T09:48:49;23.67;;;14.70;;
51987;SDS011;38003;52.012;4.346;2022-12-18T09:51:19;22.00;;;13.93;;
51987;SDS011;38003;52.012;4.346;2022-12-18T09:53:52;24.37;;;14.83;;
51987;SDS011;38003;52.012;4.346;2022-12-18T09:56:21;23.23;;;14.53;;
51987;SDS011;38003;52.012;4.346;2022-12-18T09:58:52;23.57;;;14.97;;
51987;SDS011;38003;52.012;4.346;2022-12-18T10:01:23;21.93;;;14.03;;
51987;SDS011;38003;52.012;4.346;2022-12-18T10:04:04;20.50;;;13.93;;
51987;SDS011;38003;52.012;4.346;2022-12-18T10:06:35;21.37;;;14.57;;
51987;SDS011;38003;52.012;4.346;2022-12-18T10:09:08;22.53;;;14.73;;
51987;SDS011;38003;52.012;4.346;2022-12-18T10:11:39;21.43;;;13.47;;
51987;SDS011;38003;52.012;4.346;2022-12-18T10:14:09;22.40;;;14.37;;
51987;SDS011;38003;52.012;4.346;2022-12-18T10:16:41;22.27;;;14.83;;
51987;SDS011;38003;52.012;4.346;2022-12-18T10:19:18;22.33;;;14.50;;
51987;SDS011;38003;52.012;4.346;2022-12-18T10:21:49;19.67;;;13.80;;
51987;SDS011;38003;52.012;4.346;2022-12-18T10:24:22;21.60;;;14.50;;
51987;SDS011;38003;52.012;4.346;2022-12-18T10:26:52;23.20;;;15.10;;
51987;SDS011;38003;52.012;4.346;2022-12-18T10:29:22;21.50;;;14.27;;
51987;SDS011;38003;52.012;4.346;2022-12-18T10:31:50;23.00;;;14.53;;
51987;SDS011;38003;52.012;4.346;2022-12-18T10:34:18;21.57;;;14.77;;
51987;SDS011;38003;52.012;4.346;2022-12-18T10:36:47;21.43;;;14.40;;
51987;SDS011;38003;52.012;4.346;2022-12-18T10:39:16;21.50;;;14.27;;
51987;SDS011;38003;52.012;4.346;2022-12-18T10:41:45;22.97;;;13.87;;
51987;SDS011;38003;52.012;4.346;2022-12-18T10:44:18;20.73;;;13.67;;
51987;SDS011;38003;52.012;4.346;2022-12-18T10:46:46;21.37;;;13.90;;
51987;SDS011;38003;52.012;4.346;2022-12-18T10:49:19;20.97;;;13.10;;
51987;SDS011;38003;52.012;4.346;2022-12-18T10:51:49;20.03;;;14.37;;
51987;SDS011;38003;52.012;4.346;2022-12-18T10:54:18;21.83;;;15.47;;
51987;SDS011;38003;52.012;4.346;2022-12-18T10:56:48;27.20;;;16.30;;
51987;SDS011;38003;52.012;4.346;2022-12-18T10:59:17;20.70;;;14.53;;
51987;SDS011;38003;52.012;4.346;2022-12-18T11:01:47;20.60;;;14.60;;
51987;SDS011;38003;52.012;4.346;2022-12-18T11:04:16;25.23;;;15.73;;
51987;SDS011;38003;52.012;4.346;2022-12-18T11:06:55;22.03;;;14.77;;
51987;SDS011;38003;52.012;4.346;2022-12-18T11:09:24;20.77;;;14.57;;
51987;SDS011;38003;52.012;4.346;2022-12-18T11:11:54;21.20;;;13.83;;
51987;SDS011;38003;52.012;4.346;2022-12-18T11:14:23;23.37;;;14.30;;
51987;SDS011;38003;52.012;4.346;2022-12-18T11:16:52;20.03;;;13.37;;
51987;SDS011;38003;52.012;4.346;2022-12-18T11:19:41;21.47;;;14.17;;
51987;SDS011;38003;52.012;4.346;2022-12-18T11:22:17;20.00;;;13.43;;
51987;SDS011;38003;52.012;4.346;2022-12-18T11:24:52;20.67;;;14.10;;
51987;SDS011;38003;52.012;4.346;2022-12-18T11:27:42;20.83;;;14.80;;
51987;SDS011;38003;52.012;4.346;2022-12-18T11:30:20;23.67;;;14.27;;
51987;SDS011;38003;52.012;4.346;2022-12-18T11:32:49;21.93;;;14.60;;
51987;SDS011;38003;52.012;4.346;2022-12-18T11:35:20;27.57;;;17.87;;
51987;SDS011;38003;52.012;4.346;2022-12-18T11:37:50;19.43;;;13.43;;
51987;SDS011;38003;52.012;4.346;2022-12-18T11:40:26;21.30;;;13.97;;
51987;SDS011;38003;52.012;4.346;2022-12-18T11:42:58;21.27;;;14.23;;
51987;SDS011;38003;52.012;4.346;2022-12-18T11:45:28;21.13;;;15.17;;
51987;SDS011;38003;52.012;4.346;2022-12-18T11:47:58;18.93;;;13.87;;
51987;SDS011;38003;52.012;4.346;2022-12-18T11:50:31;20.77;;;14.00;;
51987;SDS011;38003;52.012;4.346;2022-12-18T11:53:02;19.03;;;13.53;;
51987;SDS011;38003;52.012;4.346;2022-12-18T11:55:35;20.70;;;14.50;;
51987;SDS011;38003;52.012;4.346;2022-12-18T11:58:08;20.90;;;13.80;;
51987;SDS011;38003;52.012;4.346;2022-12-18T12:00:41;18.87;;;13.60;;
51987;SDS011;38003;52.012;4.346;2022-12-18T12:03:16;20.63;;;13.67;;
51987;SDS011;38003;52.012;4.346;2022-12-18T12:05:51;20.43;;;13.20;;
51987;SDS011;38003;52.012;4.346;2022-12-18T12:08:26;24.33;;;14.63;;
51987;SDS011;38003;52.012;4.346;2022-12-18T12:10:58;19.10;;;13.97;;
51987;SDS011;38003;52.012;4.346;2022-12-18T12:13:36;18.87;;;13.80;;
51987;SDS011;38003;52.012;4.346;2022-12-18T12:16:10;20.87;;;14.70;;
51987;SDS011;38003;52.012;4.346;2022-12-18T12:18:46;22.83;;;14.30;;
51987;SDS011;38003;52.012;4.346;2022-12-18T12:21:17;21.80;;;13.70;;
51987;SDS011;38003;52.012;4.346;2022-12-18T12:23:48;19.67;;;13.63;;
51987;SDS011;38003;52.012;4.346;2022-12-18T12:26:22;19.53;;;13.10;;
51987;SDS011;38003;52.012;4.346;2022-12-18T12:29:01;20.63;;;14.37;;
51987;SDS011;38003;52.012;4.346;2022-12-18T12:31:33;18.80;;;13.20;;
51987;SDS011;38003;52.012;4.346;2022-12-18T12:34:06;22.23;;;15.33;;
51987;SDS011;38003;52.012;4.346;2022-12-18T12:36:39;19.03;;;14.10;;
51987;SDS011;38003;52.012;4.346;2022-12-18T12:39:10;18.23;;;13.17;;
51987;SDS011;38003;52.012;4.346;2022-12-18T12:41:41;19.23;;;13.10;;
51987;SDS011;38003;52.012;4.346;2022-12-18T12:44:30;20.27;;;12.93;;
51987;SDS011;38003;52.012;4.346;2022-12-18T12:47:03;20.23;;;13.23;;
51987;SDS011;38003;52.012;4.346;2022-12-18T12:49:35;19.20;;;12.57;;
51987;SDS011;38003;52.012;4.346;2022-12-18T12:52:07;20.93;;;13.53;;
51987;SDS011;38003;52.012;4.346;2022-12-18T12:54:38;20.03;;;13.10;;
51987;SDS011;38003;52.012;4.346;2022-12-18T12:57:08;23.13;;;14.00;;
51987;SDS011;38003;52.012;4.346;2022-12-18T12:59:41;20.30;;;14.23;;
51987;SDS011;38003;52.012;4.346;2022-12-18T13:02:14;17.83;;;13.40;;
51987;SDS011;38003;52.012;4.346;2022-12-18T13:04:47;23.07;;;15.80;;
51987;SDS011;38003;52.012;4.346;2022-12-18T13:07:20;22.77;;;16.37;;
51987;SDS011;38003;52.012;4.346;2022-12-18T13:10:12;20.73;;;13.97;;
51987;SDS011;38003;52.012;4.346;2022-12-18T13:12:51;21.27;;;16.37;;
51987;SDS011;38003;52.012;4.346;2022-12-18T13:15:27;18.47;;;13.60;;
51987;SDS011;38003;52.012;4.346;2022-12-18T13:18:12;23.07;;;16.73;;
51987;SDS011;38003;52.012;4.346;2022-12-18T13:20:42;19.67;;;14.43;;
51987;SDS011;38003;52.012;4.346;2022-12-18T13:23:19;18.53;;;14.03;;
51987;SDS011;38003;52.012;4.346;2022-12-18T13:25:48;20.43;;;13.97;;
51987;SDS011;38003;52.012;4.346;2022-12-18T13:28:17;20.77;;;14.90;;
51987;SDS011;38003;52.012;4.346;2022-12-18T13:30:50;20.70;;;14.73;;
51987;SDS011;38003;52.012;4.346;2022-12-18T13:33:38;19.77;;;13.67;;
51987;SDS011;38003;52.012;4.346;2022-12-18T13:36:28;20.40;;;13.70;;
51987;SDS011;38003;52.012;4.346;2022-12-18T13:39:21;17.93;;;13.20;;
51987;SDS011;38003;52.012;4.346;2022-12-18T13:45:00;16.80;;;12.60;;
51987;SDS011;38003;52.012;4.346;2022-12-18T13:47:32;17.20;;;12.73;;
51987;SDS011;38003;52.012;4.346;2022-12-18T13:50:00;15.77;;;12.60;;
51987;SDS011;38003;52.012;4.346;2022-12-18T13:52:34;18.77;;;12.40;;
51987;SDS011;38003;52.012;4.346;2022-12-18T13:55:04;19.03;;;11.20;;
51987;SDS011;38003;52.012;4.346;2022-12-18T13:57:33;16.03;;;11.77;;
51987;SDS011;38003;52.012;4.346;2022-12-18T14:00:16;18.30;;;13.07;;
51987;SDS011;38003;52.012;4.346;2022-12-18T14:02:52;16.87;;;11.90;;
51987;SDS011;38003;52.012;4.346;2022-12-18T14:05:21;15.90;;;11.40;;
51987;SDS011;38003;52.012;4.346;2022-12-18T14:07:50;17.27;;;11.57;;
51987;SDS011;38003;52.012;4.346;2022-12-18T14:10:18;18.10;;;12.13;;
51987;SDS011;38003;52.012;4.346;2022-12-18T14:13:08;16.50;;;11.87;;
51987;SDS011;38003;52.012;4.346;2022-12-18T14:15:39;17.83;;;12.13;;
51987;SDS011;38003;52.012;4.346;2022-12-18T14:18:14;17.60;;;11.97;;
51987;SDS011;38003;52.012;4.346;2022-12-18T14:20:46;17.53;;;12.93;;
51987;SDS011;38003;52.012;4.346;2022-12-18T14:23:28;18.43;;;13.30;;
51987;SDS011;38003;52.012;4.346;2022-12-18T14:25:57;17.17;;;11.80;;
51987;SDS011;38003;52.012;4.346;2022-12-18T14:28:31;18.17;;;12.93;;
51987;SDS011;38003;52.012;4.346;2022-12-18T14:30:59;20.97;;;13.10;;
51987;SDS011;38003;52.012;4.346;2022-12-18T14:33:28;22.57;;;13.97;;
51987;SDS011;38003;52.012;4.346;2022-12-18T14:35:57;19.43;;;12.50;;
51987;SDS011;38003;52.012;4.346;2022-12-18T14:38:28;19.17;;;13.10;;
51987;SDS011;38003;52.012;4.346;2022-12-18T14:40:56;22.13;;;16.95;;
51987;SDS011;38003;52.012;4.346;2022-12-18T14:43:25;22.87;;;15.27;;
51987;SDS011;38003;52.012;4.346;2022-12-18T14:45:54;20.27;;;13.50;;
51987;SDS011;38003;52.012;4.346;2022-12-18T14:48:25;18.83;;;13.93;;
51987;SDS011;38003;52.012;4.346;2022-12-18T14:51:02;19.60;;;13.10;;